Time;durP1;ratioP1;P1;durP2;ratioP2;P2;SDS_P1;SDS_P2;PMS_P1;PMS_P2;Temp;Humidity;BMP_temperature;BMP_pressure;BME280_temperature;BME280_humidity;BME280_pressure;Samples;Min_cycle;Max_cycle;Signal;HPM_P1;HPM_P2
2024/03/24 00:01:55;;;;;;;;;3.33;2.00;;;;;;;;5095152;27;46235;-59
2024/03/24 00:04:20;;;;;;;;;3.33;2.00;;;;;;;;5094316;27;45444;-57
2024/03/24 00:06:46;;;;;;;;;2.67;2.67;;;;;;;;5098621;27;45396;-57
2024/03/24 00:09:11;;;;;;;;;2.00;2.00;;;;;;;;5095264;27;45682;-58
2024/03/24 00:11:37;;;;;;;;;3.00;1.67;;;;;;;;5093602;27;45842;-58
2024/03/24 00:14:03;;;;;;;;;4.67;1.67;;;;;;;;5102235;27;45635;-57
2024/03/24 00:16:29;;;;;;;;;1.00;1.00;;;;;;;;5121424;27;45434;-57
2024/03/24 00:18:54;;;;;;;;;1.00;1.00;;;;;;;;5096442;27;45370;-58
2024/03/24 00:21:20;;;;;;;;;1.00;1.00;;;;;;;;5101600;27;46449;-59
2024/03/24 00:23:45;;;;;;;;;1.33;1.33;;;;;;;;5095149;27;45716;-59
2024/03/24 00:26:10;;;;;;;;;1.00;1.00;;;;;;;;5097546;27;45388;-59
2024/03/24 00:28:36;;;;;;;;;1.33;1.00;;;;;;;;5102700;27;45603;-58
2024/03/24 00:31:01;;;;;;;;;1.00;1.00;;;;;;;;5101306;27;47178;-58
2024/03/24 00:33:27;;;;;;;;;2.00;2.00;;;;;;;;5094230;27;45711;-58
2024/03/24 00:35:52;;;;;;;;;2.00;1.00;;;;;;;;5093938;27;45397;-58
2024/03/24 00:38:17;;;;;;;;;4.33;1.67;;;;;;;;5098560;27;45388;-58
2024/03/24 00:40:43;;;;;;;;;1.00;0.33;;;;;;;;5088677;27;46489;-59
2024/03/24 00:43:08;;;;;;;;;2.67;1.00;;;;;;;;5093366;27;45462;-58
2024/03/24 00:45:33;;;;;;;;;0.00;0.00;;;;;;;;5092502;27;45369;-58
2024/03/24 00:47:59;;;;;;;;;3.00;1.67;;;;;;;;5093890;27;45523;-58
2024/03/24 00:50:24;;;;;;;;;1.00;1.00;;;;;;;;5094083;27;45344;-59
2024/03/24 00:52:49;;;;;;;;;2.00;1.00;;;;;;;;5085617;27;45497;-59
2024/03/24 00:55:15;;;;;;;;;2.00;0.00;;;;;;;;5080236;27;45312;-59
2024/03/24 00:57:40;;;;;;;;;1.00;1.00;;;;;;;;5081757;27;45535;-59
2024/03/24 01:00:06;;;;;;;;;0.67;0.67;;;;;;;;5079696;28;45542;-59
2024/03/24 01:02:32;;;;;;;;;3.00;1.00;;;;;;;;5081204;27;45755;-59
2024/03/24 01:04:58;;;;;;;;;1.00;1.00;;;;;;;;5077763;28;45481;-60
2024/03/24 01:07:23;;;;;;;;;2.00;1.00;;;;;;;;5080391;27;45353;-59
2024/03/24 01:09:53;;;;;;;;;0.00;0.00;;;;;;;;5079306;27;48269;-59
2024/03/24 01:12:18;;;;;;;;;1.00;1.00;;;;;;;;5081286;27;45824;-59
2024/03/24 01:14:43;;;;;;;;;1.00;1.00;;;;;;;;5082767;27;45432;-59
2024/03/24 01:17:10;;;;;;;;;1.00;1.00;;;;;;;;5080158;27;45455;-59
2024/03/24 01:19:35;;;;;;;;;1.33;1.00;;;;;;;;5081176;27;45869;-59
2024/03/24 01:22:01;;;;;;;;;3.00;1.00;;;;;;;;5081421;27;45404;-59
2024/03/24 01:24:26;;;;;;;;;0.00;0.00;;;;;;;;5080055;27;45331;-59
2024/03/24 01:26:51;;;;;;;;;1.00;1.00;;;;;;;;5078837;27;45303;-59
2024/03/24 01:29:18;;;;;;;;;1.00;1.00;;;;;;;;5078382;27;45386;-59
2024/03/24 01:31:43;;;;;;;;;2.00;1.00;;;;;;;;5080944;28;45317;-59
2024/03/24 01:34:09;;;;;;;;;2.00;1.00;;;;;;;;5079641;27;45360;-58
2024/03/24 01:36:34;;;;;;;;;1.67;1.00;;;;;;;;5080197;27;45579;-59
2024/03/24 01:38:59;;;;;;;;;1.00;1.00;;;;;;;;5078593;27;46649;-59
2024/03/24 01:41:25;;;;;;;;;0.00;0.00;;;;;;;;5083989;27;45559;-58
2024/03/24 01:43:50;;;;;;;;;2.00;1.00;;;;;;;;5079043;27;45477;-59
2024/03/24 01:46:15;;;;;;;;;5.67;1.00;;;;;;;;5080501;27;45576;-59
2024/03/24 01:48:41;;;;;;;;;2.33;1.67;;;;;;;;5082024;27;46090;-59
2024/03/24 01:51:09;;;;;;;;;1.00;1.00;;;;;;;;5100529;27;45463;-59
2024/03/24 01:53:35;;;;;;;;;1.00;1.00;;;;;;;;5080274;28;45257;-59
2024/03/24 01:56:00;;;;;;;;;3.00;1.00;;;;;;;;5078659;28;45670;-59
2024/03/24 01:58:26;;;;;;;;;5.33;2.00;;;;;;;;5084066;27;46171;-58
2024/03/24 02:00:51;;;;;;;;;1.00;1.00;;;;;;;;5079786;27;45390;-59
2024/03/24 02:03:17;;;;;;;;;1.00;1.00;;;;;;;;5079464;28;46096;-58
2024/03/24 02:05:42;;;;;;;;;0.67;0.67;;;;;;;;5079268;27;45602;-59
2024/03/24 02:08:07;;;;;;;;;2.00;2.00;;;;;;;;5078125;28;45592;-58
2024/03/24 02:10:34;;;;;;;;;1.00;1.00;;;;;;;;5079928;27;45465;-59
2024/03/24 02:12:59;;;;;;;;;0.00;0.00;;;;;;;;5076613;28;45449;-59
2024/03/24 02:15:24;;;;;;;;;1.00;1.00;;;;;;;;5076876;27;45478;-58
2024/03/24 02:17:50;;;;;;;;;1.00;1.00;;;;;;;;5079760;28;46291;-59
2024/03/24 02:20:15;;;;;;;;;5.00;1.00;;;;;;;;5079292;28;45437;-59
2024/03/24 02:22:42;;;;;;;;;1.00;1.00;;;;;;;;5079684;28;45416;-59
2024/03/24 02:25:07;;;;;;;;;5.00;1.00;;;;;;;;5079438;27;45350;-59
2024/03/24 02:27:32;;;;;;;;;1.33;1.00;;;;;;;;5079333;28;47307;-58
2024/03/24 02:29:58;;;;;;;;;3.67;2.00;;;;;;;;5077682;28;45346;-59
2024/03/24 02:32:23;;;;;;;;;0.33;0.33;;;;;;;;5079312;28;45323;-58
2024/03/24 02:34:49;;;;;;;;;0.67;0.00;;;;;;;;5079517;28;45468;-59
2024/03/24 02:37:14;;;;;;;;;2.00;2.00;;;;;;;;5079076;28;46913;-59
2024/03/24 02:39:39;;;;;;;;;2.00;1.00;;;;;;;;5079575;28;46551;-59
2024/03/24 02:42:04;;;;;;;;;0.33;0.33;;;;;;;;5077524;27;45449;-59
2024/03/24 02:44:29;;;;;;;;;0.00;0.00;;;;;;;;5079003;27;45414;-59
2024/03/24 02:46:55;;;;;;;;;0.00;0.00;;;;;;;;5079443;28;46348;-58
2024/03/24 02:49:20;;;;;;;;;2.67;2.00;;;;;;;;5078763;28;45502;-59
2024/03/24 02:51:45;;;;;;;;;1.33;1.33;;;;;;;;5079884;28;45279;-58
2024/03/24 02:54:10;;;;;;;;;3.00;1.00;;;;;;;;5079459;28;45319;-59
2024/03/24 02:56:35;;;;;;;;;1.33;0.33;;;;;;;;5078032;28;47288;-58
2024/03/24 02:59:00;;;;;;;;;1.00;1.00;;;;;;;;5078803;27;45326;-58
2024/03/24 03:01:26;;;;;;;;;3.67;1.00;;;;;;;;5078729;27;45458;-59
2024/03/24 03:03:51;;;;;;;;;2.00;1.00;;;;;;;;5079275;28;45267;-58
2024/03/24 03:06:16;;;;;;;;;2.33;1.00;;;;;;;;5078674;28;47235;-58
2024/03/24 03:08:41;;;;;;;;;1.00;1.00;;;;;;;;5079148;28;45459;-59
2024/03/24 03:11:07;;;;;;;;;3.00;1.33;;;;;;;;5077094;28;45662;-59
2024/03/24 03:13:32;;;;;;;;;0.33;0.33;;;;;;;;5078822;27;45466;-59
2024/03/24 03:15:57;;;;;;;;;2.00;2.00;;;;;;;;5078341;28;47356;-59
2024/03/24 03:18:22;;;;;;;;;0.67;0.67;;;;;;;;5078467;28;45312;-59
2024/03/24 03:20:48;;;;;;;;;1.00;1.00;;;;;;;;5076971;27;45516;-59
2024/03/24 03:23:13;;;;;;;;;1.00;1.00;;;;;;;;5078062;28;45454;-59
2024/03/24 03:25:38;;;;;;;;;2.00;1.00;;;;;;;;5078879;27;45372;-59
2024/03/24 03:28:03;;;;;;;;;1.33;1.00;;;;;;;;5078200;27;45576;-58
2024/03/24 03:30:29;;;;;;;;;2.33;2.33;;;;;;;;5078508;27;45344;-59
2024/03/24 03:32:54;;;;;;;;;2.33;0.33;;;;;;;;5078663;27;45375;-59
2024/03/24 03:35:19;;;;;;;;;2.33;1.00;;;;;;;;5078189;27;45381;-59
2024/03/24 03:37:44;;;;;;;;;0.67;0.67;;;;;;;;5078558;27;45373;-58
2024/03/24 03:40:10;;;;;;;;;4.33;1.33;;;;;;;;5078698;27;45630;-59
2024/03/24 03:42:36;;;;;;;;;0.00;0.00;;;;;;;;5077671;27;45393;-59
2024/03/24 03:45:01;;;;;;;;;2.00;0.67;;;;;;;;5078477;28;46143;-59
2024/03/24 03:47:26;;;;;;;;;2.33;1.00;;;;;;;;5078994;28;45433;-58
2024/03/24 03:49:52;;;;;;;;;1.00;1.00;;;;;;;;5076561;28;45388;-59
2024/03/24 03:52:17;;;;;;;;;0.00;0.00;;;;;;;;5077851;28;45513;-59
2024/03/24 03:54:43;;;;;;;;;2.00;0.00;;;;;;;;5078403;28;46276;-58
2024/03/24 03:57:08;;;;;;;;;1.00;1.00;;;;;;;;5077869;28;45359;-58
2024/03/24 03:59:34;;;;;;;;;1.33;0.67;;;;;;;;5060074;28;45327;-58
2024/03/24 04:01:59;;;;;;;;;2.00;0.00;;;;;;;;5078402;28;46241;-59
2024/03/24 04:04:24;;;;;;;;;1.00;1.00;;;;;;;;5077977;28;45303;-59
2024/03/24 04:06:50;;;;;;;;;0.33;0.00;;;;;;;;5076501;28;45602;-59
2024/03/24 04:09:16;;;;;;;;;4.00;1.00;;;;;;;;5059316;28;45372;-59
2024/03/24 04:11:42;;;;;;;;;3.00;1.00;;;;;;;;5077743;28;45477;-59
2024/03/24 04:14:07;;;;;;;;;3.33;1.33;;;;;;;;5077056;28;45504;-58
2024/03/24 04:16:32;;;;;;;;;4.00;1.00;;;;;;;;5078414;28;45434;-58
2024/03/24 04:18:57;;;;;;;;;2.00;1.33;;;;;;;;5078277;28;45601;-59
2024/03/24 04:21:23;;;;;;;;;2.33;1.33;;;;;;;;5077954;28;45480;-59
2024/03/24 04:23:50;;;;;;;;;2.33;1.00;;;;;;;;5078069;28;45268;-59
2024/03/24 04:26:15;;;;;;;;;3.33;1.00;;;;;;;;5077436;28;45495;-59
2024/03/24 04:28:41;;;;;;;;;3.00;2.00;;;;;;;;5080153;28;45409;-59
2024/03/24 04:31:06;;;;;;;;;11.00;7.67;;;;;;;;5081016;28;45434;-59
2024/03/24 04:33:31;;;;;;;;;5.67;2.00;;;;;;;;5081487;28;46363;-59
2024/03/24 04:35:56;;;;;;;;;4.33;1.00;;;;;;;;5081366;28;45489;-59
2024/03/24 04:38:21;;;;;;;;;3.00;2.00;;;;;;;;5077323;27;45463;-59
2024/03/24 04:40:47;;;;;;;;;2.00;2.00;;;;;;;;5080788;28;45488;-59
2024/03/24 04:43:13;;;;;;;;;2.67;1.00;;;;;;;;5080776;28;45440;-58
2024/03/24 04:45:41;;;;;;;;;2.67;2.00;;;;;;;;5080968;28;45420;-58
2024/03/24 04:48:06;;;;;;;;;1.67;1.67;;;;;;;;5081311;28;45391;-59
2024/03/24 04:50:31;;;;;;;;;2.00;1.00;;;;;;;;5080963;28;45308;-58
2024/03/24 04:52:58;;;;;;;;;3.00;2.00;;;;;;;;5081156;27;45615;-58
2024/03/24 04:55:23;;;;;;;;;5.00;2.00;;;;;;;;5080713;27;45414;-59
2024/03/24 04:57:48;;;;;;;;;2.00;1.00;;;;;;;;5081367;28;45537;-59
2024/03/24 05:00:14;;;;;;;;;0.67;0.67;;;;;;;;5080184;28;45618;-59
2024/03/24 05:02:39;;;;;;;;;3.67;1.00;;;;;;;;5081129;27;46265;-59
2024/03/24 05:05:05;;;;;;;;;2.00;2.00;;;;;;;;5078958;28;45414;-59
2024/03/24 05:07:30;;;;;;;;;5.00;2.00;;;;;;;;5081128;27;45915;-58
2024/03/24 05:09:55;;;;;;;;;1.00;1.00;;;;;;;;5081147;27;45480;-59
2024/03/24 05:12:21;;;;;;;;;2.67;2.00;;;;;;;;5080308;28;45490;-58
2024/03/24 05:14:46;;;;;;;;;1.33;1.33;;;;;;;;5080517;27;45462;-59
2024/03/24 05:17:13;;;;;;;;;1.67;1.00;;;;;;;;5080886;27;45341;-59
2024/03/24 05:19:38;;;;;;;;;2.00;2.00;;;;;;;;5080753;27;45563;-60
2024/03/24 05:22:03;;;;;;;;;4.33;1.00;;;;;;;;5078234;27;46297;-59
2024/03/24 05:24:28;;;;;;;;;2.00;1.00;;;;;;;;5080223;27;45454;-59
2024/03/24 05:26:54;;;;;;;;;2.00;2.00;;;;;;;;5080860;27;45405;-58
2024/03/24 05:29:20;;;;;;;;;1.33;1.00;;;;;;;;5079630;27;45658;-59
2024/03/24 05:31:50;;;;;;;;;1.33;1.33;;;;;;;;5080581;27;45579;-61
2024/03/24 05:34:15;;;;;;;;;1.00;1.00;;;;;;;;5080307;28;45363;-59
2024/03/24 05:36:40;;;;;;;;;2.00;1.67;;;;;;;;5080971;28;45481;-59
2024/03/24 05:39:07;;;;;;;;;3.00;2.00;;;;;;;;5080218;28;45384;-59
2024/03/24 05:41:33;;;;;;;;;0.00;0.00;;;;;;;;5080334;27;47192;-59
2024/03/24 05:43:58;;;;;;;;;0.67;0.67;;;;;;;;5079885;28;45484;-58
2024/03/24 05:46:23;;;;;;;;;5.67;2.00;;;;;;;;5080302;28;45611;-59
2024/03/24 05:48:49;;;;;;;;;1.00;1.00;;;;;;;;5078011;27;45508;-59
2024/03/24 05:51:14;;;;;;;;;4.00;2.00;;;;;;;;5079926;27;45993;-59
2024/03/24 05:53:39;;;;;;;;;1.00;1.00;;;;;;;;5080320;27;45409;-58
2024/03/24 05:56:05;;;;;;;;;1.00;1.00;;;;;;;;5080244;28;45377;-59
2024/03/24 05:58:30;;;;;;;;;2.33;2.00;;;;;;;;5080034;28;45377;-59
2024/03/24 06:00:56;;;;;;;;;3.00;1.67;;;;;;;;5079982;28;45512;-58
2024/03/24 06:03:22;;;;;;;;;3.00;1.33;;;;;;;;5078373;28;45376;-59
2024/03/24 06:05:47;;;;;;;;;2.00;1.00;;;;;;;;5081670;27;45359;-59
2024/03/24 06:08:12;;;;;;;;;1.00;1.00;;;;;;;;5079709;27;45392;-59
2024/03/24 06:10:38;;;;;;;;;1.00;1.00;;;;;;;;5080189;27;46462;-59
2024/03/24 06:13:03;;;;;;;;;2.00;0.00;;;;;;;;5079381;27;45481;-59
2024/03/24 06:15:28;;;;;;;;;3.33;2.00;;;;;;;;5080680;27;45396;-59
2024/03/24 06:17:54;;;;;;;;;1.67;1.33;;;;;;;;5083760;27;45437;-59
2024/03/24 06:20:19;;;;;;;;;5.33;1.00;;;;;;;;5079433;28;46397;-59
2024/03/24 06:22:44;;;;;;;;;2.67;1.00;;;;;;;;5079178;27;45516;-59
2024/03/24 06:25:09;;;;;;;;;2.00;2.00;;;;;;;;5078935;27;45454;-59
2024/03/24 06:27:35;;;;;;;;;3.00;1.00;;;;;;;;5079798;28;45307;-59
2024/03/24 06:30:00;;;;;;;;;0.00;0.00;;;;;;;;5079210;28;45385;-59
2024/03/24 06:32:25;;;;;;;;;1.00;1.00;;;;;;;;5079001;27;45516;-59
2024/03/24 06:34:50;;;;;;;;;8.00;1.00;;;;;;;;5085819;27;45655;-59
2024/03/24 06:37:16;;;;;;;;;4.00;1.33;;;;;;;;5082622;27;45520;-59
2024/03/24 06:39:42;;;;;;;;;4.00;2.67;;;;;;;;5079574;27;45524;-58
2024/03/24 06:42:08;;;;;;;;;2.00;0.67;;;;;;;;5076663;27;45680;-59
2024/03/24 06:44:37;;;;;;;;;2.00;1.00;;;;;;;;5080728;27;45668;-59
2024/03/24 06:47:02;;;;;;;;;3.00;1.67;;;;;;;;5079057;27;45504;-58
2024/03/24 06:49:27;;;;;;;;;2.00;1.00;;;;;;;;5079246;28;45914;-58
2024/03/24 06:51:52;;;;;;;;;1.33;0.67;;;;;;;;5078668;27;45532;-58
2024/03/24 06:54:18;;;;;;;;;5.67;1.00;;;;;;;;5084603;27;45405;-58
2024/03/24 06:56:43;;;;;;;;;3.00;1.00;;;;;;;;5085808;27;45392;-58
2024/03/24 06:59:08;;;;;;;;;0.00;0.00;;;;;;;;5078607;28;45609;-58
2024/03/24 07:01:34;;;;;;;;;5.33;3.00;;;;;;;;5079087;28;45373;-58
2024/03/24 07:03:59;;;;;;;;;1.67;1.67;;;;;;;;5079715;27;45356;-58
2024/03/24 07:06:24;;;;;;;;;3.00;1.00;;;;;;;;5079261;27;45990;-58
2024/03/24 07:08:49;;;;;;;;;0.00;0.00;;;;;;;;5079195;28;45469;-58
2024/03/24 07:11:15;;;;;;;;;5.00;2.00;;;;;;;;5078423;28;45594;-58
2024/03/24 07:13:40;;;;;;;;;2.67;1.00;;;;;;;;5078840;27;45390;-58
2024/03/24 07:16:05;;;;;;;;;1.00;0.00;;;;;;;;5078885;27;45443;-57
2024/03/24 07:18:30;;;;;;;;;3.67;1.00;;;;;;;;5077453;28;47425;-58
2024/03/24 07:20:59;;;;;;;;;1.00;0.00;;;;;;;;5079019;27;45452;-57
2024/03/24 07:23:24;;;;;;;;;3.67;1.00;;;;;;;;5078470;27;45687;-57
2024/03/24 07:25:49;;;;;;;;;1.00;1.00;;;;;;;;5080346;27;45535;-58
2024/03/24 07:28:15;;;;;;;;;4.00;1.33;;;;;;;;5077942;28;46076;-57
2024/03/24 07:30:40;;;;;;;;;3.00;1.33;;;;;;;;5078721;28;45503;-58
2024/03/24 07:33:05;;;;;;;;;2.67;2.00;;;;;;;;5111218;27;45358;-58
2024/03/24 07:35:31;;;;;;;;;3.33;2.00;;;;;;;;5079709;27;45283;-58
2024/03/24 07:37:56;;;;;;;;;2.00;2.00;;;;;;;;5078592;28;46268;-58
2024/03/24 07:40:22;;;;;;;;;1.00;1.00;;;;;;;;5076965;28;45529;-57
2024/03/24 07:42:47;;;;;;;;;1.00;1.00;;;;;;;;5088035;27;45508;-58
2024/03/24 07:45:12;;;;;;;;;2.67;2.00;;;;;;;;5087146;27;45424;-58
2024/03/24 07:47:38;;;;;;;;;3.00;1.67;;;;;;;;5082492;27;45555;-58
2024/03/24 07:50:03;;;;;;;;;1.00;0.33;;;;;;;;5081815;27;45986;-57
2024/03/24 07:52:28;;;;;;;;;1.67;1.67;;;;;;;;5083990;27;46659;-58
2024/03/24 07:54:54;;;;;;;;;1.67;1.00;;;;;;;;5082546;27;45408;-58
2024/03/24 07:57:19;;;;;;;;;5.00;2.00;;;;;;;;5081870;27;46224;-58
2024/03/24 07:59:44;;;;;;;;;0.67;0.67;;;;;;;;5080803;27;45408;-58
2024/03/24 08:02:10;;;;;;;;;3.00;1.00;;;;;;;;5079583;27;45591;-58
2024/03/24 08:04:35;;;;;;;;;1.67;1.00;;;;;;;;5083413;27;45346;-58
2024/03/24 08:07:00;;;;;;;;;4.00;1.67;;;;;;;;5082450;27;46533;-58
2024/03/24 08:09:26;;;;;;;;;2.00;1.00;;;;;;;;5081593;27;45413;-58
2024/03/24 08:11:51;;;;;;;;;4.00;0.67;;;;;;;;5084185;27;45546;-57
2024/03/24 08:14:16;;;;;;;;;2.67;2.00;;;;;;;;5079280;27;45409;-58
2024/03/24 08:16:41;;;;;;;;;3.67;2.00;;;;;;;;5083632;27;45570;-57
2024/03/24 08:19:07;;;;;;;;;5.00;2.00;;;;;;;;5086888;27;45916;-58
2024/03/24 08:21:32;;;;;;;;;3.67;1.00;;;;;;;;5088380;27;45710;-58
2024/03/24 08:23:57;;;;;;;;;5.00;2.33;;;;;;;;5084412;27;45563;-58
2024/03/24 08:26:22;;;;;;;;;4.00;2.00;;;;;;;;5087020;27;45584;-58
2024/03/24 08:28:48;;;;;;;;;4.00;2.00;;;;;;;;5087831;27;45496;-60
2024/03/24 08:31:13;;;;;;;;;1.00;1.00;;;;;;;;5079688;27;45618;-58
2024/03/24 08:33:38;;;;;;;;;6.33;4.00;;;;;;;;5089616;27;45444;-58
2024/03/24 08:36:04;;;;;;;;;4.67;2.00;;;;;;;;5084351;27;45508;-58
2024/03/24 08:38:29;;;;;;;;;8.67;2.67;;;;;;;;5085674;27;45485;-59
2024/03/24 08:40:54;;;;;;;;;3.67;3.00;;;;;;;;5084993;27;45388;-59
2024/03/24 08:43:19;;;;;;;;;2.33;2.00;;;;;;;;5085682;27;45561;-58
2024/03/24 08:45:45;;;;;;;;;2.67;2.67;;;;;;;;5086606;27;48088;-59
2024/03/24 08:48:10;;;;;;;;;3.00;2.00;;;;;;;;5088333;27;45390;-58
2024/03/24 08:50:35;;;;;;;;;1.67;1.00;;;;;;;;5082677;27;47307;-58
2024/03/24 08:53:00;;;;;;;;;3.00;1.00;;;;;;;;5082981;27;45298;-59
2024/03/24 08:55:26;;;;;;;;;2.00;2.00;;;;;;;;5083912;27;45571;-58
2024/03/24 08:57:51;;;;;;;;;4.00;2.00;;;;;;;;5089872;27;45718;-59
2024/03/24 09:00:16;;;;;;;;;3.33;2.67;;;;;;;;5084237;27;45399;-58
2024/03/24 09:02:41;;;;;;;;;5.00;1.00;;;;;;;;5085606;27;45889;-58
2024/03/24 09:05:07;;;;;;;;;2.67;2.00;;;;;;;;5079397;27;45460;-58
2024/03/24 09:07:32;;;;;;;;;3.67;2.00;;;;;;;;5078892;27;45916;-58
2024/03/24 09:09:57;;;;;;;;;1.67;1.67;;;;;;;;5085413;27;45517;-59
2024/03/24 09:12:22;;;;;;;;;3.00;2.00;;;;;;;;5085891;27;45466;-58
2024/03/24 09:14:48;;;;;;;;;5.00;2.67;;;;;;;;5075685;27;45444;-59
2024/03/24 09:17:13;;;;;;;;;2.00;1.00;;;;;;;;5076209;27;45377;-58
2024/03/24 09:19:38;;;;;;;;;1.67;1.33;;;;;;;;5074418;27;45708;-59
2024/03/24 09:22:05;;;;;;;;;2.33;1.67;;;;;;;;5068017;27;45695;-59
2024/03/24 09:24:30;;;;;;;;;4.67;3.00;;;;;;;;5074626;27;46320;-59
2024/03/24 09:26:57;;;;;;;;;1.00;1.00;;;;;;;;5078757;27;45394;-59
2024/03/24 09:29:22;;;;;;;;;6.00;2.33;;;;;;;;5073563;27;45560;-59
2024/03/24 09:31:48;;;;;;;;;4.00;2.00;;;;;;;;5066712;27;45334;-59
2024/03/24 09:34:13;;;;;;;;;5.00;3.33;;;;;;;;5068446;27;46813;-59
2024/03/24 09:36:39;;;;;;;;;4.67;3.00;;;;;;;;5077959;27;45544;-59
2024/03/24 09:39:06;;;;;;;;;5.00;3.00;;;;;;;;5079908;27;45423;-59
2024/03/24 09:41:31;;;;;;;;;2.67;2.67;;;;;;;;5079643;27;48481;-58
2024/03/24 09:43:57;;;;;;;;;3.67;3.67;;;;;;;;5079250;27;47075;-59
2024/03/24 09:46:23;;;;;;;;;5.00;2.00;;;;;;;;5065014;27;45987;-59
2024/03/24 09:48:49;;;;;;;;;3.00;2.67;;;;;;;;5077597;27;45604;-59
2024/03/24 09:51:15;;;;;;;;;8.67;3.00;;;;;;;;5080825;27;45708;-57
2024/03/24 09:53:42;;;;;;;;;5.00;3.33;;;;;;;;5076474;27;46492;-59
2024/03/24 09:56:07;;;;;;;;;5.33;4.00;;;;;;;;5061907;27;45697;-59
2024/03/24 09:58:33;;;;;;;;;2.00;2.00;;;;;;;;5060620;28;45582;-58
2024/03/24 10:00:59;;;;;;;;;5.33;3.00;;;;;;;;5075780;27;45596;-59
2024/03/24 10:03:24;;;;;;;;;4.33;2.67;;;;;;;;5079274;28;45384;-58
2024/03/24 10:05:50;;;;;;;;;4.67;3.67;;;;;;;;5076618;27;45444;-58
2024/03/24 10:08:15;;;;;;;;;4.00;2.67;;;;;;;;5078119;27;45580;-58
2024/03/24 10:10:40;;;;;;;;;8.67;4.00;;;;;;;;5066709;28;45593;-58
2024/03/24 10:13:06;;;;;;;;;8.33;5.00;;;;;;;;5077344;27;45515;-59
2024/03/24 10:15:33;;;;;;;;;3.67;3.67;;;;;;;;5072721;27;45697;-58
2024/03/24 10:18:01;;;;;;;;;4.00;4.00;;;;;;;;5066476;27;45461;-59
2024/03/24 10:20:26;;;;;;;;;3.33;3.33;;;;;;;;5077549;27;45356;-58
2024/03/24 10:22:55;;;;;;;;;3.67;3.00;;;;;;;;5068896;27;46448;-59
2024/03/24 10:25:24;;;;;;;;;4.00;3.00;;;;;;;;5074250;27;45546;-59
2024/03/24 10:27:50;;;;;;;;;4.33;3.00;;;;;;;;5072241;27;45654;-59
2024/03/24 10:30:15;;;;;;;;;7.67;5.00;;;;;;;;5078478;27;45469;-59
2024/03/24 10:32:41;;;;;;;;;3.00;2.67;;;;;;;;5072853;27;45811;-59
2024/03/24 10:35:06;;;;;;;;;7.33;4.67;;;;;;;;5077136;27;45385;-58
2024/03/24 10:37:31;;;;;;;;;6.00;5.00;;;;;;;;5072311;27;45366;-58
2024/03/24 10:39:56;;;;;;;;;4.00;4.00;;;;;;;;5062166;27;45617;-59
2024/03/24 10:42:22;;;;;;;;;4.33;4.33;;;;;;;;5089132;27;46613;-59
2024/03/24 10:44:49;;;;;;;;;4.00;3.67;;;;;;;;5092921;27;45398;-59
2024/03/24 10:47:14;;;;;;;;;3.00;3.00;;;;;;;;5075829;27;45662;-59
2024/03/24 10:49:40;;;;;;;;;2.50;2.50;;;;;;;;5096077;27;45533;-58
2024/03/24 10:52:05;;;;;;;;;3.00;3.00;;;;;;;;5087936;27;46042;-59
2024/03/24 10:54:31;;;;;;;;;4.00;2.00;;;;;;;;5091171;27;45554;-59
2024/03/24 10:56:56;;;;;;;;;4.00;4.00;;;;;;;;5100515;27;45686;-59
2024/03/24 10:59:22;;;;;;;;;5.67;2.67;;;;;;;;5098759;27;45380;-59
2024/03/24 11:01:47;;;;;;;;;3.67;3.67;;;;;;;;5099597;27;46155;-59
2024/03/24 11:04:13;;;;;;;;;3.33;2.67;;;;;;;;5099241;27;45564;-59
2024/03/24 11:06:39;;;;;;;;;4.67;3.00;;;;;;;;5091975;27;45365;-59
2024/03/24 11:09:05;;;;;;;;;2.67;2.00;;;;;;;;5099168;27;45502;-59
2024/03/24 11:11:31;;;;;;;;;3.00;2.33;;;;;;;;5090620;27;45366;-59
2024/03/24 11:13:57;;;;;;;;;5.00;3.00;;;;;;;;5094551;27;45452;-59
2024/03/24 11:16:23;;;;;;;;;4.00;3.00;;;;;;;;5093351;27;45315;-59
2024/03/24 11:18:48;;;;;;;;;4.67;4.67;;;;;;;;5092454;27;45337;-59
2024/03/24 11:21:34;;;;;;;;;2.33;2.00;;;;;;;;5092603;27;46344;-59
2024/03/24 11:23:59;;;;;;;;;4.00;2.00;;;;;;;;5083073;27;45389;-59
2024/03/24 11:26:25;;;;;;;;;4.33;3.00;;;;;;;;5089451;27;46562;-59
2024/03/24 11:28:52;;;;;;;;;2.67;2.67;;;;;;;;5078883;27;45274;-59
2024/03/24 11:31:20;;;;;;;;;2.00;2.00;;;;;;;;5093804;27;45474;-59
2024/03/24 11:34:04;;;;;;;;;3.00;3.00;;;;;;;;5098081;27;45518;-59
2024/03/24 11:36:30;;;;;;;;;5.00;2.00;;;;;;;;5080009;27;45617;-59
2024/03/24 11:38:57;;;;;;;;;5.67;4.00;;;;;;;;5090863;27;45648;-59
2024/03/24 11:41:25;;;;;;;;;5.00;4.00;;;;;;;;5092425;27;45430;-59
2024/03/24 11:43:57;;;;;;;;;6.00;5.00;;;;;;;;5087135;27;45343;-59
2024/03/24 11:46:22;;;;;;;;;4.33;4.00;;;;;;;;5094466;27;45426;-59
2024/03/24 11:48:52;;;;;;;;;4.00;4.00;;;;;;;;5092975;27;45377;-59
2024/03/24 11:51:17;;;;;;;;;3.67;3.67;;;;;;;;5088609;27;45641;-58
2024/03/24 11:53:43;;;;;;;;;4.00;2.67;;;;;;;;5088822;27;45259;-58
2024/03/24 11:56:08;;;;;;;;;5.33;4.33;;;;;;;;5092440;27;45492;-57
2024/03/24 11:58:34;;;;;;;;;3.00;2.25;;;;;;;;5091565;27;45331;-58
2024/03/24 12:01:00;;;;;;;;;3.50;3.00;;;;;;;;5080307;27;45477;-58
2024/03/24 12:03:25;;;;;;;;;3.75;2.75;;;;;;;;5072810;27;45375;-57
2024/03/24 12:05:52;;;;;;;;;5.25;4.00;;;;;;;;5088694;27;45799;-57
2024/03/24 12:08:18;;;;;;;;;3.00;3.00;;;;;;;;5091751;27;45511;-58
2024/03/24 12:10:43;;;;;;;;;4.50;3.00;;;;;;;;5089710;27;46417;-58
2024/03/24 12:13:08;;;;;;;;;3.25;3.25;;;;;;;;5082980;27;45425;-57
2024/03/24 12:15:33;;;;;;;;;3.75;2.50;;;;;;;;5093884;27;45595;-58
2024/03/24 12:18:08;;;;;;;;;4.75;2.00;;;;;;;;5102557;27;45390;-59
2024/03/24 12:20:34;;;;;;;;;4.25;2.75;;;;;;;;5100415;27;45653;-58
2024/03/24 12:22:59;;;;;;;;;2.50;2.50;;;;;;;;5107934;27;45418;-58
2024/03/24 12:25:24;;;;;;;;;3.00;1.67;;;;;;;;5094991;27;46106;-58
2024/03/24 12:27:56;;;;;;;;;2.00;2.00;;;;;;;;5074681;27;45410;-58
2024/03/24 12:30:22;;;;;;;;;2.67;2.00;;;;;;;;5100130;27;46374;-59
2024/03/24 12:32:49;;;;;;;;;5.00;3.00;;;;;;;;5081951;27;45580;-60
2024/03/24 12:35:16;;;;;;;;;4.00;4.00;;;;;;;;5098021;27;45417;-59
2024/03/24 12:37:41;;;;;;;;;1.00;1.00;;;;;;;;5092656;27;45353;-60
2024/03/24 12:40:14;;;;;;;;;3.67;3.00;;;;;;;;5110656;27;45417;-57
2024/03/24 12:42:39;;;;;;;;;4.00;3.33;;;;;;;;5103949;27;46650;-58
2024/03/24 12:45:10;;;;;;;;;4.00;4.00;;;;;;;;5089075;27;45341;-58
2024/03/24 12:47:36;;;;;;;;;3.00;3.00;;;;;;;;5088067;27;45363;-58
2024/03/24 12:50:02;;;;;;;;;6.33;4.00;;;;;;;;5091814;27;45863;-58
2024/03/24 12:52:28;;;;;;;;;2.67;2.67;;;;;;;;5103889;27;45342;-58
2024/03/24 12:54:53;;;;;;;;;3.00;2.00;;;;;;;;5100767;27;45468;-58
2024/03/24 12:57:18;;;;;;;;;2.00;2.00;;;;;;;;5101924;27;45571;-58
2024/03/24 12:59:59;;;;;;;;;4.00;3.00;;;;;;;;5093321;27;46252;-57
2024/03/24 13:02:25;;;;;;;;;4.00;3.00;;;;;;;;5096022;27;45399;-57
2024/03/24 13:04:50;;;;;;;;;2.00;2.00;;;;;;;;5079603;27;45493;-57
2024/03/24 13:07:16;;;;;;;;;2.00;2.00;;;;;;;;5094875;27;45600;-57
2024/03/24 13:09:42;;;;;;;;;5.00;2.00;;;;;;;;5090801;27;45675;-57
2024/03/24 13:12:09;;;;;;;;;4.33;2.00;;;;;;;;5086826;27;45467;-57
2024/03/24 13:14:34;;;;;;;;;2.00;2.00;;;;;;;;5092402;27;45383;-57
2024/03/24 13:17:21;;;;;;;;;1.67;1.67;;;;;;;;5081785;27;45378;-56
2024/03/24 13:19:52;;;;;;;;;2.33;2.00;;;;;;;;5081725;27;46166;-56
2024/03/24 13:22:18;;;;;;;;;2.67;2.67;;;;;;;;5069783;27;45756;-57
2024/03/24 13:24:44;;;;;;;;;8.00;5.00;;;;;;;;5089501;27;45669;-57
2024/03/24 13:27:29;;;;;;;;;4.00;4.00;;;;;;;;5082981;27;45606;-59
2024/03/24 13:29:55;;;;;;;;;2.67;2.33;;;;;;;;5056903;27;46153;-57
2024/03/24 13:32:20;;;;;;;;;4.67;3.33;;;;;;;;5093125;27;45413;-57
2024/03/24 13:34:48;;;;;;;;;2.33;2.33;;;;;;;;5085002;27;45255;-57
2024/03/24 13:37:15;;;;;;;;;1.67;1.67;;;;;;;;5092938;27;45323;-57
2024/03/24 13:39:49;;;;;;;;;4.00;1.00;;;;;;;;5084944;27;46133;-56
2024/03/24 13:42:29;;;;;;;;;3.67;2.00;;;;;;;;5093787;27;45298;-58
2024/03/24 13:45:12;;;;;;;;;1.00;1.00;;;;;;;;5095864;27;45505;-57
2024/03/24 13:47:38;;;;;;;;;4.00;1.67;;;;;;;;5096435;27;45426;-59
2024/03/24 13:50:03;;;;;;;;;2.00;2.00;;;;;;;;5099603;27;46297;-58
2024/03/24 13:52:30;;;;;;;;;3.67;3.67;;;;;;;;5100337;27;45331;-57
2024/03/24 13:54:56;;;;;;;;;3.00;2.67;;;;;;;;5098824;27;45390;-57
2024/03/24 13:57:21;;;;;;;;;3.00;3.00;;;;;;;;5100273;27;45552;-57
2024/03/24 13:59:46;;;;;;;;;4.00;3.67;;;;;;;;5098855;27;46278;-57
2024/03/24 14:02:12;;;;;;;;;3.33;3.33;;;;;;;;5099104;27;45734;-57
2024/03/24 14:04:37;;;;;;;;;5.00;1.67;;;;;;;;5099432;27;45290;-57
2024/03/24 14:07:03;;;;;;;;;2.00;2.00;;;;;;;;5097732;27;45811;-57
2024/03/24 14:09:28;;;;;;;;;2.00;2.00;;;;;;;;5099768;27;45447;-59
2024/03/24 14:11:53;;;;;;;;;2.00;2.00;;;;;;;;5099391;27;45437;-57
2024/03/24 14:14:27;;;;;;;;;5.33;2.00;;;;;;;;5099126;27;45503;-57
2024/03/24 14:16:52;;;;;;;;;2.00;2.00;;;;;;;;5099600;27;45648;-57
2024/03/24 14:19:36;;;;;;;;;2.50;2.25;;;;;;;;5080425;27;46117;-57
2024/03/24 14:22:20;;;;;;;;;1.00;1.00;;;;;;;;5071660;27;45759;-57
2024/03/24 14:24:48;;;;;;;;;2.00;2.00;;;;;;;;5100106;27;45197;-57
2024/03/24 14:27:14;;;;;;;;;3.33;3.00;;;;;;;;5099326;27;45733;-57
2024/03/24 14:29:39;;;;;;;;;3.33;3.33;;;;;;;;5099369;27;45438;-57
2024/03/24 14:32:04;;;;;;;;;2.67;2.33;;;;;;;;5099735;27;45472;-57
2024/03/24 14:34:29;;;;;;;;;12.00;11.67;;;;;;;;5099456;27;45822;-57
2024/03/24 14:37:27;;;;;;;;;6.67;5.67;;;;;;;;5100078;27;45234;-57